Time;durP1;ratioP1;P1;durP2;ratioP2;P2;SDS_P1;SDS_P2;PMS_P1;PMS_P2;Temp;Humidity;BMP_temperature;BMP_pressure;BME280_temperature;BME280_humidity;BME280_pressure;Samples;Min_cycle;Max_cycle;Signal;HPM_P1;HPM_P2
2021/09/24 00:02:14;;;;;;;4.43;2.00;;;;;;;13.88;75.79;98598.11;253855;1104;114981;-69
2021/09/24 00:07:18;;;;;;;5.55;2.03;;;;;;;13.74;74.21;98623.97;255113;1104;115406;-69
2021/09/24 00:12:21;;;;;;;16.40;2.60;;;;;;;13.59;73.29;98643.64;253815;1104;115651;-69
2021/09/24 00:17:25;;;;;;;17.25;2.83;;;;;;;13.42;72.08;98649.41;253645;1104;116186;-69
2021/09/24 00:22:28;;;;;;;4.47;2.03;;;;;;;13.27;71.43;98657.53;253879;1104;116416;-69
2021/09/24 00:27:31;;;;;;;9.13;2.63;;;;;;;13.11;71.10;98658.70;253891;1104;115661;-68
2021/09/24 00:32:34;;;;;;;7.70;2.60;;;;;;;13.05;70.26;98668.63;254748;1104;115956;-69
2021/09/24 00:37:37;;;;;;;9.03;2.88;;;;;;;13.00;70.11;98678.55;253890;1104;116699;-68
2021/09/24 00:42:41;;;;;;;15.68;2.70;;;;;;;12.91;69.60;98667.62;253817;1104;115793;-67
2021/09/24 00:47:44;;;;;;;3.33;1.40;;;;;;;12.85;69.23;98679.41;257240;1104;115652;-68
2021/09/24 00:53:02;;;;;;;8.25;3.18;;;;;;;12.76;68.67;98678.41;256066;1099;115983;-69
2021/09/24 00:58:19;;;;;;;13.30;2.48;;;;;;;12.61;68.96;98683.80;256621;1104;115687;-69
2021/09/24 01:03:40;;;;;;;8.88;2.28;;;;;;;12.48;68.37;98686.00;255832;1104;115658;-69
2021/09/24 01:08:58;;;;;;;17.55;3.05;;;;;;;12.40;68.25;98675.06;254819;1099;115808;-71
2021/09/24 01:14:09;;;;;;;7.13;2.15;;;;;;;12.31;67.89;98685.50;255521;1104;115715;-69
2021/09/24 01:19:28;;;;;;;6.63;2.13;;;;;;;12.16;67.58;98696.23;253918;1098;115797;-69
2021/09/24 01:24:35;;;;;;;8.23;2.03;;;;;;;12.11;68.01;98698.91;254340;1104;116213;-71
2021/09/24 01:29:56;;;;;;;15.15;3.88;;;;;;;12.05;67.83;98684.76;254120;1104;115959;-71
2021/09/24 01:35:08;;;;;;;4.86;2.08;;;;;;;11.97;68.02;98697.84;254742;1104;115910;-69
2021/09/24 01:40:18;;;;;;;8.10;3.00;;;;;;;11.88;68.10;98681.59;254130;1104;115893;-69
2021/09/24 01:45:33;;;;;;;5.00;1.58;;;;;;;11.84;68.27;98693.88;254238;1104;115907;-69
2021/09/24 01:50:38;;;;;;;8.03;1.43;;;;;;;11.84;68.45;98695.74;254701;1098;115322;-70
2021/09/24 01:55:58;;;;;;;10.80;2.07;;;;;;;11.84;68.22;98711.77;254675;1100;115355;-68
2021/09/24 02:01:14;;;;;;;7.53;2.25;;;;;;;11.82;68.37;98711.23;253838;1104;116130;-69
2021/09/24 02:06:27;;;;;;;10.98;1.68;;;;;;;11.79;68.97;98718.70;254495;1104;115555;-69
2021/09/24 02:11:46;;;;;;;12.18;2.63;;;;;;;11.82;68.73;98725.38;253809;1104;116214;-69
2021/09/24 02:17:05;;;;;;;9.53;2.75;;;;;;;11.83;68.56;98729.65;255258;1104;116457;-69
2021/09/24 02:22:22;;;;;;;5.00;1.23;;;;;;;11.84;68.97;98738.47;254032;1104;115566;-69
2021/09/24 02:27:27;;;;;;;8.35;2.03;;;;;;;11.84;68.54;98735.80;253935;1099;116579;-67
2021/09/24 02:32:45;;;;;;;9.58;3.08;;;;;;;11.84;69.15;98751.81;255023;1104;115988;-68
2021/09/24 02:37:48;;;;;;;11.38;2.18;;;;;;;11.82;68.81;98746.73;254463;1104;115540;-68
2021/09/24 02:42:52;;;;;;;16.95;1.68;;;;;;;11.79;68.70;98761.42;256355;1104;115964;-68
2021/09/24 02:47:54;;;;;;;10.10;1.70;;;;;;;11.78;68.58;98751.00;257263;1104;116160;-68
2021/09/24 02:52:57;;;;;;;13.68;2.95;;;;;;;11.79;69.04;98760.62;257067;1104;115024;-68
2021/09/24 02:58:00;;;;;;;12.58;2.63;;;;;;;11.78;68.53;98765.16;257172;1104;115648;-68
2021/09/24 03:03:04;;;;;;;10.23;2.25;;;;;;;11.77;68.38;98768.89;257191;1104;115609;-68
2021/09/24 03:08:08;;;;;;;12.70;2.90;;;;;;;11.78;68.50;98780.38;254147;1104;115345;-68
2021/09/24 03:13:11;;;;;;;14.15;2.63;;;;;;;11.77;68.48;98779.58;254052;1100;115856;-70
2021/09/24 03:18:15;;;;;;;3.50;1.60;;;;;;;11.78;68.26;98783.84;255048;1099;115394;-70
2021/09/24 03:23:21;;;;;;;11.20;2.95;;;;;;;11.77;68.26;98794.79;254431;1104;115388;-72
2021/09/24 03:28:25;;;;;;;5.83;2.43;;;;;;;11.71;68.52;98804.63;253926;1104;115322;-70
2021/09/24 03:33:28;;;;;;;9.18;2.55;;;;;;;11.66;68.32;98803.81;253830;1104;115130;-68
2021/09/24 03:38:31;;;;;;;6.75;1.65;;;;;;;11.66;68.77;98809.14;254766;1104;114592;-69
2021/09/24 03:43:34;;;;;;;4.97;2.57;;;;;;;11.63;68.77;98805.13;253688;1099;115010;-68
2021/09/24 03:48:37;;;;;;;8.20;3.15;;;;;;;11.63;69.07;98802.47;254099;1104;115429;-69
2021/09/24 03:53:40;;;;;;;7.45;2.20;;;;;;;11.62;68.83;98832.09;254247;1104;115161;-69
2021/09/24 03:58:46;;;;;;;6.80;2.03;;;;;;;11.61;68.71;98817.17;253776;1098;115445;-69
2021/09/24 04:03:49;;;;;;;8.40;1.85;;;;;;;11.59;68.72;98844.13;254365;1104;116495;-69
2021/09/24 04:08:53;;;;;;;8.58;1.63;;;;;;;11.61;68.65;98839.33;254845;1104;114818;-68
2021/09/24 04:13:56;;;;;;;8.57;1.90;;;;;;;11.61;68.80;98841.19;255018;1104;114505;-68
2021/09/24 04:18:59;;;;;;;5.13;2.57;;;;;;;11.62;68.99;98845.44;253845;1104;115075;-70
2021/09/24 04:24:02;;;;;;;6.43;1.60;;;;;;;11.63;69.23;98853.19;253922;1098;115282;-69
2021/09/24 04:29:07;;;;;;;8.35;2.73;;;;;;;11.65;69.16;98868.94;253488;1104;115520;-69
2021/09/24 04:34:11;;;;;;;19.38;2.83;;;;;;;11.64;69.17;98865.47;255332;1104;115016;-66
2021/09/24 04:39:14;;;;;;;8.20;2.97;;;;;;;11.63;69.35;98861.19;255930;1104;115313;-68
2021/09/24 04:44:18;;;;;;;6.33;1.53;;;;;;;11.62;69.43;98869.46;256171;1104;115205;-68
2021/09/24 04:49:21;;;;;;;6.85;2.13;;;;;;;11.65;69.24;98856.39;256453;1104;115390;-68
2021/09/24 04:54:24;;;;;;;12.05;4.10;;;;;;;11.64;69.25;98870.80;253588;1104;116505;-69
2021/09/24 04:59:27;;;;;;;7.27;2.53;;;;;;;11.64;69.58;98870.00;256126;1104;115766;-68
2021/09/24 05:04:32;;;;;;;4.20;1.55;;;;;;;11.69;69.44;98897.52;256628;1099;115347;-67
2021/09/24 05:09:36;;;;;;;9.68;3.08;;;;;;;11.70;69.32;98884.98;255617;1104;115790;-68
2021/09/24 05:14:39;;;;;;;10.25;2.90;;;;;;;11.70;69.59;98896.45;256518;1098;115391;-68
2021/09/24 05:19:43;;;;;;;9.93;2.53;;;;;;;11.73;69.43;98906.62;256390;1104;115760;-70
2021/09/24 05:24:46;;;;;;;11.05;2.03;;;;;;;11.74;69.71;98915.43;255145;1104;114602;-70
2021/09/24 05:29:50;;;;;;;7.93;2.75;;;;;;;11.73;69.83;98929.84;254250;1104;116592;-68
2021/09/24 05:34:53;;;;;;;7.73;1.78;;;;;;;11.74;69.67;98939.45;254340;1104;115805;-68
2021/09/24 05:39:57;;;;;;;9.90;2.83;;;;;;;11.84;69.83;98941.41;255096;1104;115744;-68
2021/09/24 05:45:02;;;;;;;6.23;1.33;;;;;;;11.92;69.90;98944.38;255121;1104;116594;-68
2021/09/24 05:50:16;;;;;;;6.57;2.00;;;;;;;11.99;69.92;98950.25;253840;1104;115776;-68
2021/09/24 05:55:22;;;;;;;4.60;2.78;;;;;;;12.05;70.00;98956.41;254915;1104;115929;-68
2021/09/24 06:00:28;;;;;;;;;;;;;;;12.04;70.18;98976.18;254032;1104;116046;-68
2021/09/24 06:05:31;;;;;;;7.73;3.10;;;;;;;11.99;70.42;98973.48;254728;1104;103100;-71
2021/09/24 06:10:33;;;;;;;5.40;2.25;;;;;;;11.98;70.35;98985.23;253842;1100;115806;-71
2021/09/24 06:15:37;;;;;;;7.36;2.32;;;;;;;11.94;70.16;98990.30;253690;1099;115307;-71
2021/09/24 06:20:42;;;;;;;10.90;2.27;;;;;;;11.97;70.44;98995.11;253760;1099;116231;-68
2021/09/24 06:25:46;;;;;;;7.73;2.23;;;;;;;11.98;70.10;98980.70;255013;1104;115929;-72
2021/09/24 06:30:49;;;;;;;8.38;1.60;;;;;;;12.02;70.43;98980.98;254988;1104;116361;-69
2021/09/24 06:35:53;;;;;;;6.48;2.00;;;;;;;12.07;70.52;98989.02;254315;1104;115711;-69
2021/09/24 06:40:56;;;;;;;6.58;3.00;;;;;;;12.05;70.54;98989.27;254366;1104;116271;-68
2021/09/24 06:46:02;;;;;;;6.58;2.68;;;;;;;12.04;70.28;98986.86;257392;1104;115594;-70
2021/09/24 06:51:06;;;;;;;4.93;1.70;;;;;;;12.06;70.33;98990.88;255618;1104;115625;-69
2021/09/24 06:56:12;;;;;;;9.70;3.63;;;;;;;12.05;70.28;98994.61;254979;1104;116188;-69
2021/09/24 07:01:16;;;;;;;8.30;2.90;;;;;;;12.08;70.39;99006.65;255663;1104;115919;-68
2021/09/24 07:06:20;;;;;;;5.93;1.63;;;;;;;12.12;70.44;99002.39;257039;1104;116972;-69
2021/09/24 07:11:24;;;;;;;5.00;2.13;;;;;;;12.17;70.41;99015.77;257205;1104;115086;-69
2021/09/24 07:16:28;;;;;;;6.58;2.03;;;;;;;12.29;70.63;99021.67;257066;1104;116188;-68
2021/09/24 07:21:32;;;;;;;16.58;2.90;;;;;;;12.39;70.25;99032.39;256565;1099;115469;-68
2021/09/24 07:26:36;;;;;;;3.30;2.10;;;;;;;12.58;70.35;99039.91;255019;1104;115426;-68
2021/09/24 07:31:39;;;;;;;12.53;3.13;;;;;;;12.72;69.96;99051.72;254990;1104;115336;-67
2021/09/24 07:36:42;;;;;;;12.53;2.15;;;;;;;12.81;70.33;99058.95;254406;1103;116305;-69
2021/09/24 07:41:46;;;;;;;9.93;2.47;;;;;;;12.88;70.32;99071.25;253785;1103;114751;-66
2021/09/24 07:46:51;;;;;;;8.48;2.38;;;;;;;13.08;69.88;99065.94;254400;1104;115073;-69
2021/09/24 07:51:55;;;;;;;5.13;1.98;;;;;;;13.17;69.67;99077.72;254100;1104;115817;-68
2021/09/24 07:56:58;;;;;;;8.90;3.03;;;;;;;13.37;70.13;99060.88;253922;1104;115241;-67
2021/09/24 08:02:04;;;;;;;5.20;1.53;;;;;;;13.54;69.84;99064.05;254342;1104;115100;-67
2021/09/24 08:07:08;;;;;;;9.55;2.53;;;;;;;13.69;69.73;99066.72;253787;1098;115161;-68
2021/09/24 08:12:11;;;;;;;10.98;3.30;;;;;;;13.85;69.16;99063.98;254152;1104;115706;-68
2021/09/24 08:17:14;;;;;;;8.65;2.58;;;;;;;13.92;69.12;99078.70;254306;1104;116029;-67
2021/09/24 08:22:17;;;;;;;8.08;2.93;;;;;;;13.91;68.61;99097.73;253730;1104;114974;-68
2021/09/24 08:27:21;;;;;;;10.03;2.87;;;;;;;13.90;68.96;99093.45;254611;1104;115364;-69
2021/09/24 08:39:07;;;;;;;9.15;2.68;;;;;;;14.02;67.94;99115.41;260463;1085;115371;-69
2021/09/24 08:44:12;;;;;;;8.40;2.03;;;;;;;14.04;68.06;99119.42;253875;1099;116019;-68
2021/09/24 08:49:18;;;;;;;3.78;1.88;;;;;;;14.06;68.08;99111.11;255863;1104;115566;-68
2021/09/24 08:54:21;;;;;;;8.68;2.45;;;;;;;14.08;67.37;99122.33;253556;1104;115576;-68
2021/09/24 08:59:23;;;;;;;8.30;2.25;;;;;;;14.31;68.10;99116.38;254506;1104;117413;-69
2021/09/24 09:04:34;;;;;;;7.63;2.28;;;;;;;14.36;67.11;99134.33;253710;1099;115616;-68
2021/09/24 09:09:44;;;;;;;5.38;1.95;;;;;;;14.42;67.83;99141.28;253705;1104;115503;-67
2021/09/24 09:15:00;;;;;;;3.75;1.18;;;;;;;14.46;67.56;99140.47;255439;1103;114716;-66
2021/09/24 09:20:31;;;;;;;3.98;2.10;;;;;;;14.41;67.14;99161.13;253857;1099;115036;-69
2021/09/24 09:25:45;;;;;;;8.40;2.75;;;;;;;14.41;67.09;99148.52;254975;1104;115674;-67
2021/09/24 09:30:48;;;;;;;5.40;2.50;;;;;;;14.40;66.79;99152.25;254252;1104;116163;-67
2021/09/24 09:36:00;;;;;;;2.93;1.47;;;;;;;14.63;67.08;99147.39;254464;1099;115351;-67
2021/09/24 09:41:14;;;;;;;5.38;1.65;;;;;;;14.81;66.69;99170.89;254906;1104;116350;-68
2021/09/24 09:46:24;;;;;;;10.73;2.43;;;;;;;14.80;66.52;99164.73;254426;1104;116728;-66
2021/09/24 09:51:27;;;;;;;11.05;2.43;;;;;;;14.95;66.09;99173.79;253828;1104;115231;-69
2021/09/24 09:56:39;;;;;;;1.98;1.83;;;;;;;14.87;65.76;99182.41;255354;1104;115625;-68
2021/09/24 10:01:44;;;;;;;2.55;2.30;;;;;;;14.83;65.62;99192.89;254942;1104;115773;-69
2021/09/24 10:06:49;;;;;;;6.85;2.25;;;;;;;14.79;65.59;99194.52;254050;1104;115337;-68
2021/09/24 10:11:53;;;;;;;3.07;1.73;;;;;;;14.79;65.34;99189.15;253970;1104;116098;-68
2021/09/24 10:16:56;;;;;;;3.58;2.25;;;;;;;14.98;65.53;99189.34;256583;1104;114637;-69
2021/09/24 10:22:00;;;;;;;5.50;2.23;;;;;;;15.10;65.08;99190.59;254709;1104;114978;-68
2021/09/24 10:27:06;;;;;;;5.50;1.75;;;;;;;15.37;65.04;99200.09;257213;1104;115049;-69
2021/09/24 10:32:21;;;;;;;8.70;3.93;;;;;;;15.63;64.88;99198.86;257269;1104;115155;-69
2021/09/24 10:37:26;;;;;;;7.75;3.08;;;;;;;15.74;64.42;99200.39;257205;1104;115725;-68
2021/09/24 10:42:35;;;;;;;7.88;3.00;;;;;;;15.65;63.86;99202.06;257357;1104;115720;-68
2021/09/24 10:48:01;;;;;;;8.10;2.45;;;;;;;15.51;63.80;99203.77;257043;1104;115589;-69
2021/09/24 10:53:11;;;;;;;11.85;2.70;;;;;;;15.50;64.09;99211.03;256047;1104;115554;-69
2021/09/24 10:58:26;;;;;;;13.30;3.85;;;;;;;15.45;63.69;99208.37;257107;1100;115160;-69
2021/09/24 11:03:32;;;;;;;7.58;2.78;;;;;;;15.38;63.42;99204.39;256302;1104;115592;-68
2021/09/24 11:08:38;;;;;;;9.80;3.28;;;;;;;15.28;63.49;99215.21;254035;1103;115669;-69
2021/09/24 11:13:45;;;;;;;3.15;2.30;;;;;;;15.46;63.85;99209.17;254718;1104;115765;-69
2021/09/24 11:18:57;;;;;;;5.78;2.18;;;;;;;15.67;63.83;99210.65;254237;1104;115321;-69
2021/09/24 11:24:03;;;;;;;11.10;2.95;;;;;;;16.03;63.58;99215.73;254169;1104;115762;-69
2021/09/24 11:29:12;;;;;;;3.73;1.78;;;;;;;16.50;63.16;99210.42;255237;1104;116078;-71
2021/09/24 11:34:39;;;;;;;7.25;2.95;;;;;;;16.88;62.77;99213.21;254075;1104;115398;-69
2021/09/24 11:39:43;;;;;;;5.60;2.43;;;;;;;16.78;61.80;99221.43;253518;1104;115850;-69
2021/09/24 11:44:51;;;;;;;6.37;2.40;;;;;;;16.62;61.85;99218.08;253691;1104;115582;-68
2021/09/24 11:50:03;;;;;;;5.50;1.77;;;;;;;16.65;61.55;99217.53;255269;1104;116314;-68
2021/09/24 11:55:13;;;;;;;6.23;2.05;;;;;;;16.63;61.09;99219.67;254576;1104;115763;-69
2021/09/24 12:00:17;;;;;;;5.55;2.05;;;;;;;16.52;60.41;99218.17;255260;1104;115571;-68
2021/09/24 12:05:21;;;;;;;13.60;2.38;;;;;;;16.48;60.75;99223.36;255142;1104;115963;-68
2021/09/24 12:10:28;;;;;;;7.40;2.25;;;;;;;16.68;60.75;99213.47;254089;1104;116629;-68
2021/09/24 12:15:58;;;;;;;5.10;2.05;;;;;;;16.71;60.21;99234.43;254141;1104;116154;-68
2021/09/24 12:21:02;;;;;;;6.75;1.73;;;;;;;16.47;59.92;99231.70;255743;1104;115559;-68
2021/09/24 12:26:10;;;;;;;7.93;1.78;;;;;;;16.46;60.13;99238.17;255384;1103;116384;-68
2021/09/24 12:31:51;;;;;;;5.83;1.70;;;;;;;16.41;59.89;99244.41;255489;1104;116153;-69
2021/09/24 12:37:02;;;;;;;6.03;2.18;;;;;;;16.53;59.66;99248.58;253933;1104;117084;-67
2021/09/24 12:42:10;;;;;;;4.90;2.50;;;;;;;16.58;59.33;99253.91;256142;1104;115760;-67
2021/09/24 12:47:23;;;;;;;1.53;1.25;;;;;;;16.51;59.63;99255.05;254701;1104;116145;-69
2021/09/24 12:52:31;;;;;;;3.05;2.38;;;;;;;16.56;59.05;99261.46;257259;1104;115767;-68
2021/09/24 12:57:35;;;;;;;6.93;2.73;;;;;;;16.48;59.17;99271.78;253830;1099;116111;-67
2021/09/24 13:02:41;;;;;;;8.73;2.45;;;;;;;16.37;58.79;99286.41;253844;1099;116336;-69
2021/09/24 13:07:49;;;;;;;5.93;2.28;;;;;;;16.24;58.77;99288.94;254279;1100;115647;-68
2021/09/24 13:12:54;;;;;;;;;;;;;;;16.25;59.03;99290.55;255447;1104;115800;-67
2021/09/24 13:17:59;;;;;;;11.18;2.55;;;;;;;16.34;59.68;99286.97;256058;1104;103038;-69
2021/09/24 13:23:03;;;;;;;4.00;2.75;;;;;;;16.24;58.86;99276.30;253526;1104;115691;-67
2021/09/24 13:28:22;;;;;;;5.43;2.05;;;;;;;16.17;58.89;99267.77;253449;1100;116351;-69
2021/09/24 13:33:27;;;;;;;7.43;1.90;;;;;;;16.13;58.85;99272.91;254241;1104;115512;-70
2021/09/24 13:38:32;;;;;;;3.03;1.58;;;;;;;16.29;59.04;99272.77;253894;1104;115371;-71
2021/09/24 13:43:37;;;;;;;5.78;1.73;;;;;;;16.25;58.90;99267.14;253534;1104;115465;-68
2021/09/24 13:48:41;;;;;;;4.43;1.85;;;;;;;16.20;58.61;99283.34;254550;1104;115315;-70
2021/09/24 13:53:43;;;;;;;6.30;2.88;;;;;;;16.06;57.98;99285.88;254585;1099;115040;-69
2021/09/24 13:58:46;;;;;;;6.48;2.43;;;;;;;15.97;58.07;99287.55;253692;1104;115674;-70
2021/09/24 14:03:50;;;;;;;7.03;1.88;;;;;;;16.23;58.16;99287.33;253558;1104;115179;-70
2021/09/24 14:08:55;;;;;;;6.93;2.77;;;;;;;16.39;57.75;99295.00;253833;1104;114929;-68
2021/09/24 14:13:59;;;;;;;7.40;2.55;;;;;;;16.49;57.19;99292.22;253998;1099;117529;-70
2021/09/24 14:19:03;;;;;;;10.28;2.10;;;;;;;16.54;57.06;99307.48;253710;1104;116215;-71
2021/09/24 14:24:08;;;;;;;4.83;1.75;;;;;;;16.47;56.83;99309.73;254986;1103;115066;-69
2021/09/24 14:29:12;;;;;;;5.43;2.18;;;;;;;16.29;56.73;99316.59;254481;1098;115210;-69
2021/09/24 14:34:17;;;;;;;9.40;2.98;;;;;;;16.04;56.73;99330.25;253638;1104;114907;-68
2021/09/24 14:39:22;;;;;;;;;;;;;;;15.87;57.16;99317.21;255123;1104;114732;-70
2021/09/24 14:44:27;;;;;;;7.80;2.50;;;;;;;15.73;57.65;99311.64;254296;1104;103059;-69
2021/09/24 14:49:31;;;;;;;5.75;1.43;;;;;;;15.70;57.29;99309.51;255457;1104;115671;-70
2021/09/24 14:54:36;;;;;;;6.87;2.27;;;;;;;15.59;57.43;99313.36;257121;1099;115920;-69
2021/09/24 14:59:39;;;;;;;1.90;1.63;;;;;;;15.54;57.16;99320.61;256984;1104;116746;-70
2021/09/24 15:04:43;;;;;;;9.58;2.35;;;;;;;15.43;57.34;99317.16;254986;1104;115951;-69
2021/09/24 15:09:46;;;;;;;4.30;2.35;;;;;;;15.32;57.71;99335.20;254520;1104;115965;-70
2021/09/24 15:14:50;;;;;;;6.55;2.43;;;;;;;15.28;57.87;99344.11;253715;1104;116211;-70
2021/09/24 15:19:53;;;;;;;8.40;2.38;;;;;;;15.26;58.21;99343.57;255369;1104;115987;-68
2021/09/24 15:24:58;;;;;;;10.88;3.48;;;;;;;15.16;58.03;99345.20;254393;1104;116038;-68
2021/09/24 15:30:02;;;;;;;6.03;2.55;;;;;;;15.02;57.94;99346.84;254909;1100;116816;-68
2021/09/24 15:35:08;;;;;;;8.70;2.48;;;;;;;14.99;58.73;99355.45;255769;1104;115475;-69
2021/09/24 15:40:16;;;;;;;11.28;3.65;;;;;;;14.99;59.09;99366.18;254565;1104;115907;-68
2021/09/24 15:45:21;;;;;;;5.93;2.40;;;;;;;14.93;59.27;99363.80;253634;1104;115739;-71
2021/09/24 15:50:24;;;;;;;2.93;2.03;;;;;;;14.81;58.97;99366.77;253753;1104;115740;-68
2021/09/24 15:55:27;;;;;;;15.03;2.70;;;;;;;14.62;59.25;99365.73;254265;1104;115836;-68
2021/09/24 16:00:31;;;;;;;6.25;2.10;;;;;;;14.44;59.52;99370.56;254057;1104;115899;-67
2021/09/24 16:05:35;;;;;;;4.05;2.68;;;;;;;14.30;59.84;99382.08;253968;1104;115684;-68
2021/09/24 16:10:38;;;;;;;7.10;3.15;;;;;;;14.18;59.67;99385.00;254660;1104;116225;-68
2021/09/24 16:15:42;;;;;;;8.33;3.10;;;;;;;14.09;59.82;99383.91;255320;1099;115746;-66
2021/09/24 16:20:45;;;;;;;5.00;1.88;;;;;;;13.98;60.64;99384.98;254349;1104;116993;-68
2021/09/24 16:25:48;;;;;;;11.57;3.33;;;;;;;13.88;60.23;99379.59;254977;1104;115694;-68
2021/09/24 16:30:51;;;;;;;12.70;3.43;;;;;;;13.75;60.45;99386.27;254596;1104;116168;-67
2021/09/24 16:35:54;;;;;;;14.03;2.43;;;;;;;13.61;61.10;99380.59;253892;1104;115548;-68
2021/09/24 16:40:57;;;;;;;5.35;1.93;;;;;;;13.47;60.95;99387.49;253779;1099;115744;-67
2021/09/24 16:46:03;;;;;;;4.20;1.48;;;;;;;13.36;61.33;99396.56;255993;1104;116414;-68
2021/09/24 16:51:06;;;;;;;6.03;3.05;;;;;;;13.25;61.60;99409.09;257236;1104;116037;-67
2021/09/24 16:56:09;;;;;;;8.13;3.03;;;;;;;13.19;61.52;99409.31;257026;1104;115634;-67
2021/09/24 17:01:12;;;;;;;14.30;3.57;;;;;;;13.11;61.53;99414.09;255209;1104;116722;-67
2021/09/24 18:36:34;;;;;;;8.25;2.95;;;;;;;11.91;63.98;99516.19;255126;1107;203131;-68
2021/09/24 18:41:37;;;;;;;7.23;3.40;;;;;;;11.86;64.11;99524.95;254616;1107;115694;-68
2021/09/24 18:46:41;;;;;;;19.65;4.65;;;;;;;11.79;64.27;99530.47;254263;1107;115507;-68
2021/09/24 18:51:45;;;;;;;11.45;3.70;;;;;;;11.77;64.50;99539.77;253862;1106;115135;-68
2021/09/24 18:56:48;;;;;;;8.10;3.08;;;;;;;11.75;64.71;99545.33;255029;1107;121440;-68
2021/09/24 19:01:52;;;;;;;10.95;3.43;;;;;;;11.72;64.66;99545.01;255330;1107;114696;-68
2021/09/24 19:06:58;;;;;;;8.80;3.08;;;;;;;11.70;64.67;99549.78;255606;1107;115382;-67
2021/09/24 19:12:01;;;;;;;9.20;2.90;;;;;;;11.71;65.07;99546.06;256069;1107;115422;-67
2021/09/24 19:17:08;;;;;;;13.40;3.88;;;;;;;11.72;65.45;99547.69;256219;1107;116276;-67
2021/09/24 19:22:14;;;;;;;13.73;4.15;;;;;;;11.70;65.34;99557.80;256216;1106;114944;-66
2021/09/24 19:27:19;;;;;;;5.63;2.68;;;;;;;11.66;65.57;99562.02;256326;1106;115231;-68
2021/09/24 19:32:22;;;;;;;8.25;3.40;;;;;;;11.60;65.51;99561.16;255324;1105;114932;-68
2021/09/24 19:37:27;;;;;;;10.35;3.93;;;;;;;11.52;65.77;99561.56;254778;1107;115022;-68
2021/09/24 19:42:31;;;;;;;19.10;4.18;;;;;;;11.46;66.02;99562.53;254355;1107;116620;-69
2021/09/24 19:47:36;;;;;;;14.03;5.10;;;;;;;11.38;66.19;99561.08;254168;1107;115355;-70
2021/09/24 19:52:40;;;;;;;11.07;4.03;;;;;;;11.22;66.39;99561.10;255386;1105;116672;-70
2021/09/24 19:57:44;;;;;;;11.95;3.93;;;;;;;11.04;66.98;99564.80;254483;1107;116050;-68
2021/09/24 20:02:47;;;;;;;6.65;2.93;;;;;;;10.93;67.13;99569.17;253812;1107;115124;-68
2021/09/24 20:07:51;;;;;;;5.98;3.03;;;;;;;10.84;67.18;99567.13;253254;1107;115113;-69
2021/09/24 20:12:56;;;;;;;11.73;3.43;;;;;;;10.79;67.78;99570.52;253101;1107;115750;-68
2021/09/24 20:18:00;;;;;;;11.30;4.75;;;;;;;10.77;67.99;99577.94;254124;1107;115194;-67
2021/09/24 20:23:04;;;;;;;29.43;6.58;;;;;;;10.72;68.18;99572.52;253448;1107;115364;-67
2021/09/24 20:28:12;;;;;;;14.10;4.83;;;;;;;10.67;68.30;99586.59;253934;1106;115435;-67
2021/09/24 20:33:18;;;;;;;10.53;4.73;;;;;;;10.64;68.46;99581.73;254906;1100;115538;-67
2021/09/24 20:38:22;;;;;;;11.48;4.90;;;;;;;10.65;69.05;99582.54;254255;1106;115680;-70
2021/09/24 20:43:25;;;;;;;15.97;4.97;;;;;;;10.71;69.37;99587.70;253978;1106;116021;-68
2021/09/24 20:48:29;;;;;;;8.87;4.90;;;;;;;10.74;69.88;99589.89;253331;1100;115352;-67
2021/09/24 20:53:33;;;;;;;30.05;7.70;;;;;;;10.73;69.94;99590.13;253941;1105;115241;-67
2021/09/24 20:58:36;;;;;;;14.50;5.70;;;;;;;10.75;70.44;99574.70;255668;1106;115211;-68
2021/09/24 21:03:41;;;;;;;13.30;4.90;;;;;;;10.83;70.61;99574.33;254131;1106;114985;-67
2021/09/24 21:08:45;;;;;;;28.85;7.18;;;;;;;10.92;70.91;99570.22;253572;1107;115806;-67
2021/09/24 21:13:48;;;;;;;20.25;6.33;;;;;;;11.00;71.37;99574.36;255173;1106;116327;-66
2021/09/24 21:18:53;;;;;;;19.75;6.68;;;;;;;11.13;71.99;99576.70;256101;1100;115746;-67
2021/09/24 21:23:57;;;;;;;19.18;5.70;;;;;;;11.26;71.80;99572.91;255292;1100;116606;-68
2021/09/24 21:29:00;;;;;;;18.63;6.38;;;;;;;11.32;72.33;99567.38;254996;1107;115639;-68
2021/09/24 21:34:04;;;;;;;18.83;5.70;;;;;;;11.40;72.59;99563.51;254792;1107;116043;-67
2021/09/24 21:39:07;;;;;;;13.94;6.56;;;;;;;11.47;72.75;99564.96;255109;1106;116576;-67
2021/09/24 21:44:12;;;;;;;16.05;7.98;;;;;;;11.56;73.01;99562.70;254401;1107;116291;-65
2021/09/24 21:49:18;;;;;;;17.00;6.24;;;;;;;11.67;73.14;99556.42;254691;1105;115852;-67
2021/09/24 21:54:25;;;;;;;12.15;6.08;;;;;;;11.82;73.54;99552.39;254959;1106;115917;-66
2021/09/24 21:59:29;;;;;;;11.50;4.97;;;;;;;11.94;73.71;99553.06;254777;1107;115999;-65
2021/09/24 22:04:33;;;;;;;24.43;7.13;;;;;;;12.00;73.72;99557.42;253657;1107;116328;-66
2021/09/24 22:09:40;;;;;;;10.25;6.38;;;;;;;12.07;73.82;99553.52;254259;1106;116187;-67
2021/09/24 22:14:44;;;;;;;16.77;5.70;;;;;;;12.20;74.11;99562.22;253723;1100;116238;-68
2021/09/24 22:19:47;;;;;;;9.20;5.48;;;;;;;12.29;74.49;99556.17;254681;1106;115287;-67
2021/09/24 22:24:52;;;;;;;9.65;4.80;;;;;;;12.42;74.99;99554.98;254967;1106;115375;-68
2021/09/24 22:29:55;;;;;;;18.75;5.83;;;;;;;12.56;75.13;99550.84;254993;1106;116030;-68
2021/09/24 22:34:57;;;;;;;8.03;4.63;;;;;;;12.63;74.93;99546.11;254812;1106;115825;-68
2021/09/24 22:40:00;;;;;;;6.90;4.08;;;;;;;12.73;75.02;99548.89;260869;1088;115930;-69
2021/09/24 22:45:04;;;;;;;7.90;4.65;;;;;;;12.87;75.09;99543.11;254883;1107;115533;-68
2021/09/24 22:50:09;;;;;;;9.10;3.83;;;;;;;12.96;75.05;99546.94;256233;1107;115628;-69
2021/09/24 22:55:13;;;;;;;9.85;4.00;;;;;;;13.04;75.25;99543.81;254508;1107;114979;-68
2021/09/24 23:00:18;;;;;;;11.17;4.47;;;;;;;13.10;75.44;99542.80;253507;1107;115149;-67
2021/09/24 23:05:21;;;;;;;8.65;4.03;;;;;;;13.13;75.08;99543.09;255706;1106;115077;-67
2021/09/24 23:10:24;;;;;;;6.43;3.13;;;;;;;13.21;75.49;99536.47;255919;1107;115427;-66
2021/09/24 23:15:28;;;;;;;5.35;4.05;;;;;;;13.27;75.42;99548.83;255082;1100;115928;-68
2021/09/24 23:20:32;;;;;;;9.78;4.18;;;;;;;13.29;75.23;99551.25;253310;1107;114798;-68
2021/09/24 23:25:36;;;;;;;8.25;3.58;;;;;;;13.35;75.01;99544.88;255296;1107;115145;-67
2021/09/24 23:30:40;;;;;;;5.27;3.07;;;;;;;13.39;75.38;99543.30;253764;1107;115909;-67
2021/09/24 23:35:42;;;;;;;6.53;3.38;;;;;;;13.41;75.24;99535.82;253793;1107;116172;-67
2021/09/24 23:40:46;;;;;;;7.80;3.88;;;;;;;13.46;75.55;99541.19;254258;1107;115927;-68
2021/09/24 23:45:48;;;;;;;3.55;2.95;;;;;;;13.50;75.63;99531.57;254395;1107;115627;-67
2021/09/24 23:50:51;;;;;;;4.95;4.15;;;;;;;13.51;75.78;99535.86;254612;1107;115063;-68
2021/09/24 23:55:54;;;;;;;6.05;3.13;;;;;;;13.56;75.39;99535.90;254095;1107;115732;-67
